Etusivu
METAR-TAF:

METAR-TAF

Lentoasemat :

Chongqing Jiangbein kansainvälinen lentoasema

Chongqing, Kiina

Leveyspiiri: 29-31N, Pituuspiiri: 106-29E, korkeus merenpinnasta: 351 m

Tämänhetkinen sää

Tämä raportti tehtiin 11 minuuttia sitten, kello 03.00 UTC
Tuuli 4 kn kaakosta
Lämpötila 4°C
Kosteus 93%
Ilmanpaine 1029 hPa
Näkyvyys 10 km tai enemmän
Hajanaisia pilviä 2000 ft:n korkeudessa
Pilvistä 4000 ft:n korkeudessa

METAR: ZUCK 240300Z 14002MPS 9999 SCT020 OVC040 04/03 Q1029 NOSIG

Aika: 11:11 (03:11 UTC)

Sääennuste

Tämä raportti tehtiin 6 tuntia ja 0 minuuttia sitten, kello 21.11 UTC
Ennuste voimassa 24. päivästä klo 00 UTC - 24. päivään klo 24 UTC
Tuuli 6 kn pohjoisesta/koillisesta
Näkyvyys: 6000 m
Hajanaisia pilviä 2600 ft:n korkeudessa
Pilvistä 5000 ft:n korkeudessa

TAF: ZUCK 232111Z 2400/2424 03003MPS 6000 SCT026 OVC050 TX06/2407Z TN04/2422Z

Säähavainnot ja -ennusteet yli 4000 lentoasemalta (METAR- ja TAF-raportit).

Käytössä olevat sääasemat on merkitty karttaan keltaisilla ja punaisilla pisteillä.

Aseta hiiri pisteen päälle nähdäksesi sääaseman nimen.

Klikkaa sitten nähdäksesi säähavainnot ja -ennusteet.

Kartan vaihtaminen: klikkaa mustalla rastilla varustettuja vihreitä pisteitä, niin voit zoomata sisään; viivalla varustettua vihreää pistettä, niin voit zoomata ulos tai vihreitä nuolia, niin pääset viereisille kartoille.


METAR-TAF: